Arabia, OH (45659)

9:12 AM EDT on July 25, 2016 (GMT -0400)
Flatwoods y | | Change Station
Active Advisory: Heat Advisory

Elev 656 ft 38.52 °N, 82.71 °W | Updated 15 minutes ago

Clear
Clear
81.4 °F
Feels Like 92 °F
N
0.0
Wind Variable Wind from East

Today
High -- | Low -- °F
--% Chance of Precip.
Yesterday
High -- | Low -- °F
Precip. -- in
Pressure 30.01 in
Visibility 10.0 miles
Clouds Clear
Heat Index 92 °F
Dew Point 81 °F
Humidity 99%
Rainfall 0.00 in
Snow Depth Not available.
6:26 AM 8:47 PM
Waning Gibbous, 66% visible
METAR KHTS 251251Z 20005KT 10SM CLR 27/24 A3004 RMK AO2 SLP161 T02670244
Pressure 30.01 in
Visibility 10.0 miles
Clouds Clear
Heat Index 92 °F
Dew Point 81 °F
Humidity 99%
Rainfall 0.00 in
Snow Depth Not available.
6:26 AM 8:47 PM
Waning Gibbous, 66% visible
METAR KHTS 251251Z 20005KT 10SM CLR 27/24 A3004 RMK AO2 SLP161 T02670244

10-Day Weather Forecast

Almanac

Astronomy

Jul. 25, 2016 Rise Set
Actual Time
Civil Twilight
Nautical Twilight
Astronomical Twilight
Moon
Length of Visible Light
Length of Day
Tomorrow will be .
, % of the Moon is Illuminated

Today's Extremes

State Highs State Lows

Community

WunderPhotos

Upload Photos

1,927,297 photos uploaded!

WunderBlog® & News

Nearby

Air Quality

  Air Quality AQ Index Pollutant
Not available.

Snow Depth

Station Depth Elevation

Earthquake Activity

City Distance Mag. Time & Date
Minimum magnitude displayed is 2.5.

Coastal Water Temperatures

Place Temperature

Stations

Nearby Weather Stations

Station Location Temp. Windchill Dew Point Humidity Wind Precip. Elev Updated Type
                   

Watches & Warnings

Heat Advisory
Issued: 6:51 AM EDT Jul. 25, 2016 – National Weather Service

... Heat advisory remains in effect from noon today to 8 PM EDT
this evening...

* heat index values... 100 to 104 due to temperatures in the
lower 90s... and dewpoints in the lower 70s.

* Timing... noon to 8 PM EDT. Mid to late afternoon will be the
hottest time period.

* Impacts... heat stroke... heat exhaustion and other heat related
illnesses can quickly occur if you spend a significant amount
of time outdoors.

Precautionary/preparedness actions...

A heat advisory means that a period of hot temperatures is
expected. The combination of hot temperatures and high humidity
will combine to create a situation in which heat illnesses are
possible. Drink plenty of fluids... stay in an air-conditioned
room... stay out of the sun... and check up on relatives and
neighbors.

To reduce risk during outdoor work... the occupational safety and
health administration recommends scheduling frequent rest breaks
in shaded or air conditioned environments. Anyone overcome by
heat should be moved to a cool and shaded location. Heat stroke
is an emergency... call 9 1 1.